createdAt,value
2022-07-26T00:01:08.668Z,0
2022-07-26T00:03:09.613Z,0
2022-07-26T00:05:11.166Z,0
2022-07-26T00:07:12.298Z,0
2022-07-26T00:09:13.343Z,0
2022-07-26T00:11:14.197Z,0
2022-07-26T00:15:16.483Z,0
2022-07-26T00:17:17.995Z,0
2022-07-26T00:21:20.683Z,0
2022-07-26T00:23:22.574Z,0
2022-07-26T00:25:24.151Z,0
2022-07-26T00:27:25.683Z,0
2022-07-26T00:31:27.904Z,0
2022-07-26T00:33:29.228Z,0
2022-07-26T00:35:30.693Z,0
2022-07-26T00:37:31.839Z,0
2022-07-26T00:39:33.573Z,0
2022-07-26T00:41:34.896Z,0
2022-07-26T00:43:36.129Z,0
2022-07-26T00:45:37.645Z,0.842
2022-07-26T00:47:39.317Z,0
2022-07-26T00:49:40.525Z,0
2022-07-26T00:51:41.663Z,0
2022-07-26T00:53:42.985Z,0
2022-07-26T00:55:44.383Z,0
2022-07-26T00:57:45.886Z,0
2022-07-26T00:59:47.567Z,0
2022-07-26T01:01:49.225Z,0
2022-07-26T01:03:50.055Z,0
2022-07-26T01:05:51.655Z,0
2022-07-26T01:07:52.522Z,0
2022-07-26T01:09:54.281Z,0
2022-07-26T01:11:56.000Z,0
2022-07-26T01:13:57.232Z,0
2022-07-26T01:15:58.904Z,0
2022-07-26T01:17:59.923Z,0
2022-07-26T01:20:01.219Z,0
2022-07-26T01:22:02.861Z,0
2022-07-26T01:24:03.915Z,0
2022-07-26T01:26:04.766Z,0
2022-07-26T01:28:06.295Z,0
2022-07-26T01:30:08.091Z,0
2022-07-26T01:32:08.969Z,0
2022-07-26T01:34:10.754Z,0
2022-07-26T01:36:11.792Z,0
2022-07-26T01:40:14.318Z,0.421
2022-07-26T01:42:15.216Z,0
2022-07-26T01:44:16.150Z,0
2022-07-26T01:46:17.409Z,0
2022-07-26T01:48:19.180Z,0
2022-07-26T01:50:20.184Z,0
2022-07-26T01:52:21.153Z,0
2022-07-26T01:54:24.374Z,0
2022-07-26T01:56:23.867Z,0
2022-07-26T01:58:25.018Z,0
2022-07-26T02:00:26.040Z,0
2022-07-26T02:02:27.613Z,0
2022-07-26T02:04:29.096Z,0
2022-07-26T02:06:30.892Z,0
2022-07-26T02:08:31.943Z,0
2022-07-26T02:12:34.682Z,0
2022-07-26T02:14:36.184Z,0
2022-07-26T02:16:37.267Z,0
2022-07-26T02:18:39.072Z,0.421
2022-07-26T02:22:41.810Z,1.544
2022-07-26T02:24:42.885Z,0
2022-07-26T02:26:44.104Z,1.123
2022-07-26T02:28:45.738Z,1.263
2022-07-26T02:30:47.347Z,1.544
2022-07-26T02:32:49.007Z,0.982
2022-07-26T02:34:50.786Z,0.28
2022-07-26T02:36:52.306Z,0
2022-07-26T02:38:53.705Z,1.263
2022-07-26T02:40:55.210Z,1.544
2022-07-26T02:44:58.184Z,2.527
2022-07-26T02:46:59.397Z,1.825
2022-07-26T02:49:44.614Z,2.106
2022-07-26T02:51:46.171Z,1.544
2022-07-26T02:53:47.066Z,1.825
2022-07-26T02:55:48.189Z,0.702
2022-07-26T02:57:49.182Z,0
2022-07-26T02:59:50.491Z,0
2022-07-26T03:01:52.144Z,0
2022-07-26T03:03:53.828Z,0
2022-07-26T03:05:55.659Z,0
2022-07-26T03:07:56.655Z,0
2022-07-26T03:09:57.577Z,0
2022-07-26T03:11:58.727Z,0
2022-07-26T03:13:59.705Z,0
2022-07-26T03:16:01.009Z,0
2022-07-26T03:18:02.286Z,0
2022-07-26T03:20:03.491Z,0.561
2022-07-26T03:22:05.187Z,0.28
2022-07-26T03:24:06.568Z,0
2022-07-26T03:26:07.377Z,0
2022-07-26T03:28:08.684Z,0
2022-07-26T03:30:10.112Z,0
2022-07-26T03:32:11.435Z,0.14
2022-07-26T03:34:12.977Z,0
2022-07-26T03:36:15.521Z,0
2022-07-26T03:38:16.228Z,0
2022-07-26T03:40:17.550Z,0
2022-07-26T03:42:18.723Z,0
2022-07-26T03:44:20.212Z,0
2022-07-26T03:48:22.960Z,0
2022-07-26T03:50:24.470Z,0
2022-07-26T03:52:26.074Z,0
2022-07-26T03:54:26.954Z,0
2022-07-26T03:56:28.806Z,0
2022-07-26T04:00:31.307Z,0
2022-07-26T04:02:33.075Z,0
2022-07-26T04:04:34.853Z,0
2022-07-26T04:06:36.125Z,2.106
2022-07-26T04:08:37.854Z,0
2022-07-26T04:10:39.555Z,0.28
2022-07-26T04:12:40.462Z,0
2022-07-26T04:14:41.876Z,0.28
2022-07-26T04:16:43.733Z,0
2022-07-26T04:20:46.344Z,0
2022-07-26T04:22:47.922Z,1.404
2022-07-26T04:24:49.140Z,0
2022-07-26T04:26:50.521Z,0.28
2022-07-26T04:30:53.246Z,0
2022-07-26T04:32:55.049Z,0
2022-07-26T04:34:56.519Z,0
2022-07-26T04:36:58.218Z,0
2022-07-26T04:38:59.581Z,0
2022-07-26T04:41:00.921Z,0.561
2022-07-26T04:43:01.882Z,1.404
2022-07-26T04:45:07.989Z,1.825
2022-07-26T04:47:04.801Z,0.28
2022-07-26T04:49:06.597Z,0
2022-07-26T04:51:08.028Z,0.421
2022-07-26T04:53:09.401Z,0
2022-07-26T04:55:10.533Z,0
2022-07-26T04:57:11.659Z,0.14
2022-07-26T04:59:12.903Z,0
2022-07-26T05:01:14.087Z,0.28
2022-07-26T05:03:15.635Z,1.404
2022-07-26T05:05:17.385Z,0.14
2022-07-26T05:07:18.767Z,0.421
2022-07-26T05:09:19.817Z,1.263
2022-07-26T05:11:20.560Z,0
2022-07-26T05:13:23.251Z,0
2022-07-26T05:15:23.386Z,0.421
2022-07-26T05:17:24.894Z,0.982
2022-07-26T05:19:26.294Z,0.14
2022-07-26T05:21:27.424Z,0
2022-07-26T05:23:28.493Z,0.982
2022-07-26T05:25:29.885Z,0
2022-07-26T05:29:32.774Z,0
2022-07-26T05:31:33.960Z,0
2022-07-26T05:33:35.395Z,0
2022-07-26T05:35:36.609Z,0
2022-07-26T05:37:37.458Z,0
2022-07-26T05:39:38.731Z,1.123
2022-07-26T05:41:40.298Z,1.263
2022-07-26T05:43:42.108Z,0.702
2022-07-26T05:45:42.331Z,0.14
2022-07-26T05:47:43.823Z,0.702
2022-07-26T05:49:45.173Z,1.123
2022-07-26T05:51:46.024Z,0.561
2022-07-26T05:53:47.212Z,3.088
2022-07-26T05:55:48.676Z,0.421
2022-07-26T05:57:49.969Z,1.123
2022-07-26T06:01:53.227Z,0
2022-07-26T06:03:54.158Z,0.982
2022-07-26T06:05:55.418Z,1.263
2022-07-26T06:09:58.104Z,1.825
2022-07-26T06:11:59.411Z,1.825
2022-07-26T06:14:00.805Z,2.667
2022-07-26T06:16:02.471Z,2.527
2022-07-26T06:18:04.045Z,1.123
2022-07-26T06:20:05.573Z,2.527
2022-07-26T06:22:07.280Z,3.79
2022-07-26T06:24:08.684Z,1.404
2022-07-26T06:26:10.131Z,0
2022-07-26T06:28:11.275Z,0.842
2022-07-26T06:30:12.234Z,0.561
2022-07-26T06:32:13.770Z,2.808
2022-07-26T06:34:15.198Z,2.246
2022-07-26T06:36:16.970Z,1.965
2022-07-26T06:38:18.407Z,2.527
2022-07-26T06:40:19.620Z,0.842
2022-07-26T06:42:20.572Z,1.825
2022-07-26T06:44:21.350Z,3.51
2022-07-26T06:46:22.434Z,0.14
2022-07-26T06:50:25.628Z,1.825
2022-07-26T06:52:25.654Z,0.14
2022-07-26T06:54:27.430Z,2.106
2022-07-26T06:56:28.370Z,0.842
2022-07-26T06:58:29.484Z,0.561
2022-07-26T07:00:31.191Z,2.246
2022-07-26T07:02:32.778Z,1.965
2022-07-26T07:04:34.103Z,3.088
2022-07-26T07:06:34.989Z,3.369
2022-07-26T07:08:36.698Z,2.808
2022-07-26T07:10:38.055Z,2.106
2022-07-26T07:12:39.442Z,4.071
2022-07-26T07:14:40.789Z,2.527
2022-07-26T07:16:42.473Z,2.527
2022-07-26T07:18:44.023Z,2.527
2022-07-26T07:20:45.197Z,2.106
2022-07-26T07:22:46.705Z,3.65
2022-07-26T07:24:47.945Z,3.65
2022-07-26T07:26:49.218Z,0.842
2022-07-26T07:30:51.928Z,1.123
2022-07-26T07:32:53.177Z,3.931
2022-07-26T07:34:54.335Z,3.229
2022-07-26T07:36:55.449Z,5.335
2022-07-26T07:38:56.940Z,3.229
2022-07-26T07:42:59.163Z,3.51
2022-07-26T07:45:00.043Z,5.756
2022-07-26T07:47:01.025Z,5.335
2022-07-26T07:49:02.323Z,2.386
2022-07-26T07:53:05.537Z,4.212
2022-07-26T07:55:38.008Z,3.931
2022-07-26T07:57:08.807Z,5.756
2022-07-26T07:59:10.652Z,3.088
2022-07-26T08:01:11.335Z,1.965
2022-07-26T08:03:12.455Z,4.773
2022-07-26T08:05:14.017Z,3.65
2022-07-26T08:07:15.114Z,3.79
2022-07-26T08:09:16.179Z,3.369
2022-07-26T08:11:17.742Z,2.948
2022-07-26T08:13:21.334Z,4.773
2022-07-26T08:15:21.287Z,4.071
2022-07-26T08:17:21.922Z,8.424
2022-07-26T08:19:23.228Z,9.547
2022-07-26T08:21:24.787Z,10.108
2022-07-26T08:25:27.684Z,15.022
2022-07-26T08:27:29.244Z,7.02
2022-07-26T08:29:30.658Z,8.564
2022-07-26T08:31:31.879Z,3.65
2022-07-26T08:33:33.090Z,10.389
2022-07-26T08:35:34.148Z,6.037
2022-07-26T08:37:35.104Z,12.074
2022-07-26T08:39:36.724Z,8.143
2022-07-26T08:41:37.718Z,5.896
2022-07-26T08:43:46.796Z,8.283
2022-07-26T08:45:40.388Z,3.51
2022-07-26T08:47:55.348Z,7.722
2022-07-26T08:49:42.856Z,4.773
2022-07-26T08:51:44.043Z,6.318
2022-07-26T08:53:45.178Z,10.81
2022-07-26T08:56:05.759Z,12.074
2022-07-26T08:57:48.182Z,8.704
2022-07-26T08:59:49.329Z,13.338
2022-07-26T09:01:50.491Z,14.742
2022-07-26T09:03:51.812Z,6.177
2022-07-26T09:05:53.133Z,8.143
2022-07-26T09:07:54.815Z,7.581
2022-07-26T09:09:55.846Z,11.934
2022-07-26T09:11:57.550Z,12.074
2022-07-26T09:13:58.634Z,7.581
2022-07-26T09:16:00.183Z,7.3
2022-07-26T09:18:01.100Z,9.126
2022-07-26T09:20:02.355Z,10.108
2022-07-26T09:22:07.155Z,3.369
2022-07-26T09:24:05.277Z,10.67
2022-07-26T09:26:06.526Z,9.547
2022-07-26T09:28:07.536Z,10.53
2022-07-26T09:30:08.991Z,15.163
2022-07-26T09:32:10.361Z,9.547
2022-07-26T09:32:56.989Z,8.704
2022-07-26T09:34:58.512Z,5.475
2022-07-26T09:36:56.404Z,8.845
2022-07-26T09:38:57.457Z,8.704
2022-07-26T09:40:58.681Z,7.862
2022-07-26T09:42:59.683Z,8.283
2022-07-26T09:45:00.497Z,12.636
2022-07-26T09:47:02.192Z,6.458
2022-07-26T09:49:11.143Z,4.633
2022-07-26T09:51:04.944Z,7.16
2022-07-26T09:53:06.292Z,10.53
2022-07-26T09:55:07.779Z,7.02
2022-07-26T09:59:10.794Z,13.759
2022-07-26T10:01:12.435Z,9.547
2022-07-26T10:03:13.947Z,6.177
2022-07-26T10:05:15.477Z,6.318
2022-07-26T10:07:16.649Z,4.212
2022-07-26T10:09:17.701Z,8.143
2022-07-26T10:11:18.738Z,8.002
2022-07-26T10:13:19.854Z,15.865
2022-07-26T10:15:21.414Z,8.424
2022-07-26T10:17:25.102Z,8.424
2022-07-26T10:19:24.200Z,12.636
2022-07-26T10:23:26.414Z,14.601
2022-07-26T10:27:28.966Z,5.616
2022-07-26T10:29:30.180Z,8.985
2022-07-26T10:31:31.618Z,10.108
2022-07-26T10:33:32.730Z,5.756
2022-07-26T10:35:34.048Z,11.372
2022-07-26T10:37:34.895Z,6.318
2022-07-26T10:39:36.207Z,4.633
2022-07-26T10:41:37.862Z,11.372
2022-07-26T10:43:41.702Z,4.352
2022-07-26T10:45:40.450Z,7.441
2022-07-26T10:47:41.411Z,2.386
2022-07-26T10:49:42.865Z,8.845
2022-07-26T10:51:44.423Z,6.037
2022-07-26T10:53:45.394Z,3.65
2022-07-26T10:55:46.255Z,2.667
2022-07-26T10:59:55.143Z,1.965
2022-07-26T11:01:50.103Z,8.143
2022-07-26T11:03:51.538Z,3.65
2022-07-26T11:05:52.732Z,7.581
2022-07-26T11:09:55.480Z,6.177
2022-07-26T11:11:57.166Z,5.335
2022-07-26T11:13:58.841Z,6.598
2022-07-26T11:16:00.030Z,5.335
2022-07-26T11:18:01.657Z,2.527
2022-07-26T11:20:03.093Z,8.564
2022-07-26T11:22:04.788Z,2.808
2022-07-26T11:24:05.901Z,2.667
2022-07-26T11:26:06.831Z,1.684
2022-07-26T11:28:08.342Z,3.229
2022-07-26T11:30:08.873Z,2.808
2022-07-26T11:32:16.956Z,3.79
2022-07-26T11:34:12.271Z,3.088
2022-07-26T11:36:13.683Z,5.054
2022-07-26T11:38:14.861Z,3.088
2022-07-26T11:42:17.529Z,5.335
2022-07-26T11:44:19.294Z,3.79
2022-07-26T11:46:20.156Z,0
2022-07-26T11:48:21.525Z,3.65
2022-07-26T11:50:23.495Z,1.684
2022-07-26T11:52:25.418Z,1.544
2022-07-26T11:54:24.968Z,3.088
2022-07-26T11:56:26.249Z,8.143
2022-07-26T12:02:29.975Z,3.51
2022-07-26T12:04:31.307Z,0.561
2022-07-26T12:06:32.000Z,4.773
2022-07-26T12:08:32.911Z,3.088
2022-07-26T12:10:34.396Z,3.79
2022-07-26T12:12:36.126Z,4.212
2022-07-26T12:14:37.320Z,3.369
2022-07-26T12:16:38.458Z,3.229
2022-07-26T12:18:39.846Z,5.616
2022-07-26T12:20:41.500Z,8.002
2022-07-26T12:22:42.686Z,5.616
2022-07-26T12:24:43.821Z,5.335
2022-07-26T12:26:44.810Z,5.896
2022-07-26T12:28:45.735Z,1.263
2022-07-26T12:30:47.179Z,5.054
2022-07-26T12:32:48.861Z,4.773
2022-07-26T12:34:50.166Z,6.037
2022-07-26T12:36:51.194Z,7.16
2022-07-26T12:38:52.011Z,6.318
2022-07-26T12:40:53.298Z,2.527
2022-07-26T12:42:58.745Z,0.842
2022-07-26T12:44:56.216Z,2.667
2022-07-26T12:46:57.665Z,2.527
2022-07-26T12:49:00.525Z,6.037
2022-07-26T12:51:00.111Z,8.424
2022-07-26T12:53:01.511Z,4.633
2022-07-26T12:55:02.759Z,1.825
2022-07-26T12:57:04.505Z,4.914
2022-07-26T12:59:06.118Z,2.106
2022-07-26T13:01:07.867Z,1.544
2022-07-26T13:03:09.586Z,1.825
2022-07-26T13:05:11.416Z,4.492
2022-07-26T13:07:12.683Z,0.702
2022-07-26T13:09:16.679Z,3.229
2022-07-26T13:11:14.750Z,1.123
2022-07-26T13:13:16.112Z,5.194
2022-07-26T13:15:17.817Z,8.985
2022-07-26T13:17:18.850Z,2.527
2022-07-26T13:19:20.099Z,5.896
2022-07-26T13:23:22.216Z,4.071
2022-07-26T13:25:23.395Z,2.527
2022-07-26T13:27:24.287Z,6.318
2022-07-26T13:29:25.774Z,5.194
2022-07-26T13:31:27.490Z,1.123
2022-07-26T13:33:28.468Z,4.914
2022-07-26T13:35:29.268Z,3.65
2022-07-26T13:37:30.398Z,0.842
2022-07-26T13:43:34.751Z,7.722
2022-07-26T13:45:35.998Z,0.561
2022-07-26T13:47:37.310Z,1.825
2022-07-26T13:49:38.859Z,4.492
2022-07-26T13:51:39.860Z,4.773
2022-07-26T13:53:51.231Z,5.194
2022-07-26T13:55:42.994Z,5.616
2022-07-26T13:57:48.073Z,4.352
2022-07-26T13:59:45.225Z,4.773
2022-07-26T14:01:46.341Z,2.106
2022-07-26T14:03:47.953Z,6.598
2022-07-26T14:05:48.774Z,3.229
2022-07-26T14:07:50.155Z,5.896
2022-07-26T14:09:51.199Z,5.335
2022-07-26T14:11:52.931Z,5.616
2022-07-26T14:13:53.689Z,2.948
2022-07-26T14:15:54.688Z,1.544
2022-07-26T14:17:55.635Z,1.123
2022-07-26T14:19:56.489Z,3.229
2022-07-26T14:21:59.081Z,3.79
2022-07-26T14:23:59.661Z,1.544
2022-07-26T14:26:01.015Z,0.702
2022-07-26T14:28:02.583Z,2.386
2022-07-26T14:30:03.853Z,2.106
2022-07-26T14:32:05.398Z,2.246
2022-07-26T14:34:06.586Z,1.123
2022-07-26T14:36:07.474Z,0.842
2022-07-26T14:38:08.896Z,0.702
2022-07-26T14:40:09.788Z,2.386
2022-07-26T14:42:11.116Z,3.79
2022-07-26T14:44:12.728Z,4.633
2022-07-26T14:46:13.578Z,2.246
2022-07-26T14:48:26.941Z,1.965
2022-07-26T14:50:15.863Z,1.684
2022-07-26T14:52:17.177Z,3.79
2022-07-26T14:54:18.577Z,1.544
2022-07-26T14:56:19.559Z,5.475
2022-07-26T14:58:20.528Z,6.458
2022-07-26T15:00:21.859Z,2.948
2022-07-26T15:02:23.016Z,0.842
2022-07-26T15:04:24.122Z,0.14
2022-07-26T15:06:25.600Z,2.527
2022-07-26T15:08:26.361Z,5.194
2022-07-26T15:10:27.973Z,2.808
2022-07-26T15:14:31.277Z,3.65
2022-07-26T15:16:32.293Z,6.318
2022-07-26T15:18:33.328Z,7.441
2022-07-26T15:20:34.414Z,2.808
2022-07-26T15:22:35.464Z,1.965
2022-07-26T15:24:39.682Z,0.561
2022-07-26T15:26:38.309Z,3.51
2022-07-26T15:28:39.866Z,1.684
2022-07-26T15:30:41.057Z,3.79
2022-07-26T15:32:42.420Z,2.948
2022-07-26T15:34:43.955Z,2.386
2022-07-26T15:36:44.976Z,3.229
2022-07-26T15:38:46.004Z,1.965
2022-07-26T15:40:47.746Z,3.79
2022-07-26T15:42:49.225Z,1.544
2022-07-26T15:44:50.924Z,5.756
2022-07-26T15:46:52.562Z,0.982
2022-07-26T15:48:54.068Z,5.054
2022-07-26T15:50:55.059Z,3.79
2022-07-26T15:52:56.618Z,4.492
2022-07-26T15:54:57.855Z,4.071
2022-07-26T15:56:58.873Z,1.825
2022-07-26T15:59:00.589Z,1.684
2022-07-26T16:01:01.881Z,3.65
2022-07-26T16:03:03.092Z,5.475
2022-07-26T16:05:04.350Z,1.263
2022-07-26T16:07:05.223Z,3.65
2022-07-26T16:09:16.380Z,2.948
2022-07-26T16:11:08.505Z,1.404
2022-07-26T16:13:10.223Z,1.263
2022-07-26T16:15:11.853Z,5.896
2022-07-26T16:17:12.712Z,5.475
2022-07-26T16:17:56.394Z,1.825
2022-07-26T16:19:58.160Z,4.071
2022-07-26T16:22:07.250Z,2.667
2022-07-26T16:24:04.578Z,4.633
2022-07-26T16:26:01.635Z,3.229
2022-07-26T16:28:03.387Z,2.246
2022-07-26T16:30:05.462Z,2.386
2022-07-26T16:32:07.274Z,4.492
2022-07-26T16:34:08.712Z,1.544
2022-07-26T16:36:10.308Z,1.825
2022-07-26T16:40:12.929Z,3.931
2022-07-26T16:42:14.245Z,6.458
2022-07-26T16:44:15.116Z,6.598
2022-07-26T16:46:16.680Z,1.965
2022-07-26T16:50:24.952Z,2.386
2022-07-26T16:52:20.587Z,3.51
2022-07-26T16:54:21.560Z,0.842
2022-07-26T16:56:22.754Z,2.386
2022-07-26T16:58:24.526Z,2.667
2022-07-26T17:00:25.780Z,2.948
2022-07-26T17:02:27.258Z,1.825
2022-07-26T17:04:28.358Z,1.263
2022-07-26T17:06:29.867Z,2.667
2022-07-26T17:08:31.536Z,3.369
2022-07-26T17:10:32.458Z,4.071
2022-07-26T17:12:34.007Z,2.808
2022-07-26T17:14:35.713Z,3.369
2022-07-26T17:16:36.969Z,5.756
2022-07-26T17:18:38.148Z,2.667
2022-07-26T17:20:39.250Z,4.352
2022-07-26T17:22:40.328Z,2.527
2022-07-26T17:24:41.682Z,4.773
2022-07-26T17:26:42.917Z,3.229
2022-07-26T17:28:44.143Z,0.421
2022-07-26T17:30:45.874Z,0
2022-07-26T17:32:47.611Z,1.263
2022-07-26T17:34:48.797Z,2.386
2022-07-26T17:36:50.515Z,2.386
2022-07-26T17:38:52.321Z,0.561
2022-07-26T17:40:53.334Z,1.263
2022-07-26T17:42:55.006Z,3.088
2022-07-26T17:44:56.221Z,0.982
2022-07-26T17:46:57.734Z,3.369
2022-07-26T17:48:59.056Z,0
2022-07-26T17:51:00.535Z,1.404
2022-07-26T17:53:01.466Z,2.808
2022-07-26T17:55:02.655Z,1.123
2022-07-26T17:57:04.216Z,0.982
2022-07-26T17:59:05.766Z,2.808
2022-07-26T18:01:06.893Z,1.544
2022-07-26T18:03:08.161Z,0
2022-07-26T18:05:09.586Z,3.931
2022-07-26T18:07:11.213Z,3.088
2022-07-26T18:09:13.268Z,2.386
2022-07-26T18:11:13.614Z,0.982
2022-07-26T18:13:14.544Z,1.123
2022-07-26T18:15:15.833Z,0.28
2022-07-26T18:17:17.426Z,0.561
2022-07-26T18:21:20.032Z,1.684
2022-07-26T18:23:21.609Z,0.561
2022-07-26T18:25:23.084Z,0.421
2022-07-26T18:27:24.516Z,0
2022-07-26T18:29:26.026Z,0.702
2022-07-26T18:31:27.195Z,0.842
2022-07-26T18:33:28.616Z,0.28
2022-07-26T18:35:29.949Z,0.28
2022-07-26T18:37:31.694Z,0.28
2022-07-26T18:39:33.306Z,0
2022-07-26T18:41:35.002Z,0.14
2022-07-26T18:43:36.306Z,0
2022-07-26T18:45:37.261Z,1.825
2022-07-26T18:47:38.757Z,0
2022-07-26T18:49:39.848Z,0.421
2022-07-26T18:51:40.701Z,0
2022-07-26T18:53:41.562Z,0
2022-07-26T18:55:42.790Z,0
2022-07-26T18:57:43.898Z,0
2022-07-26T18:59:45.472Z,0
2022-07-26T19:03:48.161Z,0
2022-07-26T19:05:49.043Z,0
2022-07-26T19:07:50.287Z,0
2022-07-26T19:09:55.032Z,0
2022-07-26T19:11:52.579Z,0
2022-07-26T19:13:53.812Z,0
2022-07-26T19:15:55.595Z,0.14
2022-07-26T19:17:57.115Z,0
2022-07-26T19:19:58.060Z,0
2022-07-26T19:21:59.635Z,0
2022-07-26T19:24:00.672Z,0
2022-07-26T19:26:02.185Z,0
2022-07-26T19:28:03.408Z,0
2022-07-26T19:32:05.631Z,0
2022-07-26T19:34:07.162Z,0
2022-07-26T19:36:08.613Z,0
2022-07-26T19:38:10.168Z,0
2022-07-26T19:40:11.925Z,0
2022-07-26T19:42:13.557Z,0
2022-07-26T19:44:15.008Z,0
2022-07-26T19:46:15.932Z,0
2022-07-26T19:48:17.543Z,0
2022-07-26T19:50:18.525Z,0
2022-07-26T19:52:20.093Z,0
2022-07-26T19:54:21.722Z,0
2022-07-26T19:56:22.582Z,1.544
2022-07-26T19:58:26.121Z,0
2022-07-26T20:02:26.737Z,0.421
2022-07-26T20:04:28.068Z,0
2022-07-26T20:06:29.020Z,0
2022-07-26T20:08:30.697Z,0
2022-07-26T20:12:33.066Z,0
2022-07-26T20:14:34.485Z,0
2022-07-26T20:16:36.236Z,0
2022-07-26T20:18:37.158Z,0
2022-07-26T20:20:38.158Z,0
2022-07-26T20:22:39.642Z,0
2022-07-26T20:24:41.299Z,0
2022-07-26T20:26:42.406Z,0
2022-07-26T20:28:44.047Z,0
2022-07-26T20:30:45.955Z,0
2022-07-26T20:32:47.321Z,0
2022-07-26T20:34:48.860Z,0
2022-07-26T20:36:49.837Z,0
2022-07-26T20:38:51.702Z,0
2022-07-26T20:40:52.252Z,0
2022-07-26T20:42:53.607Z,0
2022-07-26T20:44:55.109Z,0
2022-07-26T20:46:56.907Z,0
2022-07-26T20:48:58.368Z,0
2022-07-26T20:50:59.325Z,0
2022-07-26T20:53:00.732Z,0
2022-07-26T20:55:02.303Z,0
2022-07-26T20:57:04.457Z,0
2022-07-26T20:59:05.759Z,0
2022-07-26T21:01:07.365Z,0
2022-07-26T21:03:08.842Z,0
2022-07-26T21:05:10.080Z,0
2022-07-26T21:07:11.303Z,0
2022-07-26T21:09:12.900Z,0
2022-07-26T21:11:13.724Z,0
2022-07-26T21:17:18.846Z,0
2022-07-26T21:19:19.825Z,0.421
2022-07-26T21:21:21.014Z,0
2022-07-26T21:23:22.492Z,0
2022-07-26T21:27:25.182Z,0
2022-07-26T21:29:26.432Z,0
2022-07-26T21:31:27.714Z,0
2022-07-26T21:33:28.743Z,0
2022-07-26T21:35:30.228Z,0
2022-07-26T21:37:31.532Z,0
2022-07-26T21:39:32.576Z,0
2022-07-26T21:41:34.171Z,0
2022-07-26T21:43:35.453Z,0
2022-07-26T21:45:36.893Z,0
2022-07-26T21:47:38.563Z,0
2022-07-26T21:49:39.676Z,0
2022-07-26T21:51:41.402Z,2.246
2022-07-26T21:53:43.034Z,1.123
2022-07-26T21:55:44.880Z,0.842
2022-07-26T21:57:46.491Z,0.982
2022-07-26T21:59:47.437Z,0
2022-07-26T22:01:49.038Z,2.527
2022-07-26T22:03:49.994Z,2.808
2022-07-26T22:05:51.514Z,2.948
2022-07-26T22:07:52.920Z,0.14
2022-07-26T22:09:54.050Z,0
2022-07-26T22:11:55.354Z,0.561
2022-07-26T22:13:56.632Z,0
2022-07-26T22:15:58.089Z,0
2022-07-26T22:17:59.430Z,0
2022-07-26T22:20:01.192Z,0
2022-07-26T22:22:02.116Z,0
2022-07-26T22:24:03.035Z,0
2022-07-26T22:26:04.041Z,0
2022-07-26T22:28:05.624Z,0
2022-07-26T22:30:06.707Z,0
2022-07-26T22:32:08.339Z,0
2022-07-26T22:34:09.631Z,0
2022-07-26T22:36:10.998Z,0
2022-07-26T22:38:12.221Z,0
2022-07-26T22:40:13.808Z,0
2022-07-26T22:42:16.060Z,0
2022-07-26T22:44:16.727Z,0
2022-07-26T22:46:18.636Z,0
2022-07-26T22:48:20.145Z,0
2022-07-26T22:50:21.670Z,0
2022-07-26T22:52:23.230Z,0
2022-07-26T22:54:25.060Z,0
2022-07-26T22:56:26.722Z,0
2022-07-26T22:58:28.284Z,0.702
2022-07-26T23:00:30.131Z,0
2022-07-26T23:02:31.425Z,0
2022-07-26T23:03:33.480Z,0
2022-07-26T23:05:45.226Z,0
2022-07-26T23:07:36.557Z,0
2022-07-26T23:09:37.822Z,0
2022-07-26T23:11:39.629Z,0
2022-07-26T23:13:40.579Z,0
2022-07-26T23:15:41.699Z,0
2022-07-26T23:19:44.216Z,0
2022-07-26T23:21:45.764Z,0
2022-07-26T23:23:46.774Z,0.14
2022-07-26T23:25:47.726Z,0.561
2022-07-26T23:29:50.476Z,0
2022-07-26T23:31:52.120Z,0
2022-07-26T23:33:54.559Z,0
2022-07-26T23:35:55.159Z,0
2022-07-26T23:37:57.078Z,0
2022-07-26T23:42:00.109Z,0
2022-07-26T23:44:01.529Z,0
2022-07-26T23:46:02.541Z,0
2022-07-26T23:48:03.563Z,0
2022-07-26T23:50:04.709Z,0
2022-07-26T23:52:05.650Z,0
2022-07-26T23:54:07.242Z,1.263
2022-07-26T23:56:08.579Z,0.421
2022-07-26T23:58:11.796Z,0.28
